Time;durP1;ratioP1;P1;durP2;ratioP2;P2;SDS_P1;SDS_P2;PMS_P1;PMS_P2;Temp;Humidity;BMP_temperature;BMP_pressure;BME280_temperature;BME280_humidity;BME280_pressure;Samples;Min_cycle;Max_cycle;Signal;HPM_P1;HPM_P2
2022/05/06 00:01:51;;;;;;;;;;;;;;;14.99;79.43;100044.00;4880062;29;19934;-65
2022/05/06 00:04:24;;;;;;;;;;;;;;;14.98;79.44;100051.72;4879884;29;19924;-64
2022/05/06 00:06:53;;;;;;;;;;;;;;;14.85;79.44;100048.47;4880657;29;19923;-65
2022/05/06 00:09:22;;;;;;;;;;;;;;;14.83;80.18;100051.94;4879165;29;19972;-65
2022/05/06 00:11:51;;;;;;;;;;;;;;;14.77;80.04;100046.00;4880527;29;20367;-64
2022/05/06 00:14:20;;;;;;;;;;;;;;;14.80;80.16;100045.09;4880109;29;19931;-64
2022/05/06 00:17:08;;;;;;;;;;;;;;;14.81;79.88;100044.22;4879762;29;19944;-64
2022/05/06 00:19:41;;;;;;;;;;;;;;;14.76;79.31;100036.56;4880161;29;19923;-64
2022/05/06 00:22:11;;;;;;;;;;;;;;;14.79;79.58;100040.81;4879912;29;20398;-65
2022/05/06 00:24:40;;;;;;;;;;;;;;;14.84;79.34;100030.47;4879958;29;20296;-65
2022/05/06 00:27:09;;;;;;;;;;;;;;;14.86;78.97;100026.16;4879818;29;20039;-65
2022/05/06 00:29:40;;;;;;;;;;;;;;;14.84;79.32;100023.63;4880153;29;20014;-65
2022/05/06 00:32:09;;;;;;;;;;;;;;;14.94;79.58;100026.94;4879833;29;20015;-64
2022/05/06 00:34:40;;;;;;;;;;;;;;;14.93;79.62;100022.66;4879724;29;19924;-64
2022/05/06 00:37:08;;;;;;;;;;;;;;;14.89;79.48;100036.41;4879940;29;19923;-64
2022/05/06 00:39:40;;;;;;;;;;;;;;;14.84;79.43;100027.91;4879692;29;19931;-65
2022/05/06 00:42:09;;;;;;;;;;;;;;;14.86;79.25;100031.31;4879772;29;19923;-65
2022/05/06 00:44:41;;;;;;;;;;;;;;;14.93;79.31;100032.94;4879809;29;20393;-65
2022/05/06 00:47:18;;;;;;;;;;;;;;;14.99;79.52;100038.00;4879947;29;19951;-65
2022/05/06 00:50:04;;;;;;;;;;;;;;;15.01;79.27;100036.28;4882730;29;19923;-65
2022/05/06 00:52:33;;;;;;;;;;;;;;;14.90;79.35;100038.97;4883398;29;20290;-65
2022/05/06 00:55:05;;;;;;;;;;;;;;;14.89;78.89;100036.41;4882874;29;20386;-65
2022/05/06 00:57:34;;;;;;;;;;;;;;;14.91;79.35;100039.81;4883269;29;19975;-64
2022/05/06 01:00:19;;;;;;;;;;;;;;;14.90;79.08;100033.00;4882940;29;19923;-65
2022/05/06 01:02:47;;;;;;;;;;;;;;;14.91;79.15;100032.09;4883141;29;19923;-64
2022/05/06 01:05:18;;;;;;;;;;;;;;;14.92;79.27;100039.81;4881565;29;19963;-64
2022/05/06 01:07:47;;;;;;;;;;;;;;;14.94;78.99;100032.94;4883129;29;19985;-64
2022/05/06 01:10:19;;;;;;;;;;;;;;;14.93;79.03;100032.94;4881836;29;20328;-65
2022/05/06 01:12:50;;;;;;;;;;;;;;;14.91;79.21;100034.69;4882739;29;19928;-65
2022/05/06 01:15:23;;;;;;;;;;;;;;;14.88;79.25;100034.72;4850707;29;19924;-65
2022/05/06 01:17:58;;;;;;;;;;;;;;;14.85;79.37;100032.19;4882862;29;19924;-65
2022/05/06 01:20:34;;;;;;;;;;;;;;;14.85;79.50;100034.78;4883155;29;19955;-65
2022/05/06 01:23:04;;;;;;;;;;;;;;;14.82;79.37;100037.38;4866222;29;20278;-65
2022/05/06 01:25:35;;;;;;;;;;;;;;;14.85;79.67;100034.78;4882370;29;19924;-65
2022/05/06 01:28:05;;;;;;;;;;;;;;;14.81;79.82;100046.78;4865801;29;20025;-65
2022/05/06 01:30:35;;;;;;;;;;;;;;;14.79;79.69;100040.81;4882605;29;19946;-65
2022/05/06 01:33:08;;;;;;;;;;;;;;;14.76;79.48;100034.00;4882663;29;19923;-65
2022/05/06 01:35:37;;;;;;;;;;;;;;;14.75;79.99;100034.88;4865658;29;19955;-65
2022/05/06 01:38:08;;;;;;;;;;;;;;;14.73;79.94;100036.59;4882511;29;20298;-65
2022/05/06 01:40:39;;;;;;;;;;;;;;;14.71;80.21;100033.19;4865771;29;19931;-65
2022/05/06 01:43:11;;;;;;;;;;;;;;;14.70;79.82;100036.66;4882217;29;19931;-65
2022/05/06 01:45:42;;;;;;;;;;;;;;;14.69;79.85;100032.38;4880836;29;19924;-65
2022/05/06 01:48:37;;;;;;;;;;;;;;;14.63;79.81;100034.16;4882020;29;19930;-64
2022/05/06 01:51:08;;;;;;;;;;;;;;;14.59;79.74;100029.91;4882346;29;19931;-64
2022/05/06 01:53:39;;;;;;;;;;;;;;;14.54;79.86;100032.53;4882314;29;19986;-65
2022/05/06 01:56:09;;;;;;;;;;;;;;;14.51;80.08;100030.03;4881035;29;19924;-65
2022/05/06 01:58:41;;;;;;;;;;;;;;;14.51;79.98;100032.59;4881034;29;19927;-65
2022/05/06 02:01:12;;;;;;;;;;;;;;;14.48;79.91;100035.19;4864316;29;19924;-65
2022/05/06 02:06:28;;;;;;;;;;;;;;;14.33;79.98;100035.34;4880652;29;19923;-65
2022/05/06 02:09:08;;;;;;;;;;;;;;;14.34;80.23;100037.06;4865496;29;20018;-65
2022/05/06 02:11:52;;;;;;;;;;;;;;;14.36;80.00;100034.47;4880842;29;19924;-65
2022/05/06 02:14:27;;;;;;;;;;;;;;;14.33;80.14;100035.34;4865082;29;19966;-64
2022/05/06 02:17:07;;;;;;;;;;;;;;;14.29;80.43;100033.66;4881517;29;19923;-65
2022/05/06 02:19:47;;;;;;;;;;;;;;;14.29;80.71;100033.66;4881770;29;19923;-65
2022/05/06 02:22:29;;;;;;;;;;;;;;;14.29;80.62;100033.66;4864985;29;20286;-65
2022/05/06 02:25:09;;;;;;;;;;;;;;;14.26;80.50;100028.53;4881342;29;19931;-65
2022/05/06 02:27:59;;;;;;;;;;;;;;;14.29;80.60;100037.94;4881021;29;19928;-65
2022/05/06 02:33:23;;;;;;;;;;;;;;;14.31;80.32;100031.94;4880363;29;20022;-65
2022/05/06 02:36:14;;;;;;;;;;;;;;;14.31;80.51;100034.50;4881294;29;19946;-65
2022/05/06 02:38:43;;;;;;;;;;;;;;;14.32;80.01;100030.22;4881094;29;20386;-65
2022/05/06 02:41:15;;;;;;;;;;;;;;;14.31;79.88;100031.94;4864584;29;19930;-65
2022/05/06 02:43:53;;;;;;;;;;;;;;;14.22;79.80;100032.00;4880272;29;19927;-65
2022/05/06 02:46:24;;;;;;;;;;;;;;;14.20;80.01;100027.75;4879854;29;19959;-64
2022/05/06 02:48:55;;;;;;;;;;;;;;;14.17;79.88;100030.34;4880289;29;20363;-65
2022/05/06 02:51:24;;;;;;;;;;;;;;;14.15;80.41;100024.38;4879881;29;19923;-64
2022/05/06 02:53:53;;;;;;;;;;;;;;;14.18;79.89;100029.50;4864580;29;19928;-65
2022/05/06 02:56:30;;;;;;;;;;;;;;;14.20;80.05;100025.19;4864379;29;19923;-64
2022/05/06 02:59:01;;;;;;;;;;;;;;;14.19;79.78;100026.91;4864540;29;19924;-65
2022/05/06 03:01:33;;;;;;;;;;;;;;;14.17;80.41;100028.63;4864260;29;19971;-64
2022/05/06 03:04:06;;;;;;;;;;;;;;;14.18;79.87;100024.34;4879716;29;19924;-64
2022/05/06 03:06:36;;;;;;;;;;;;;;;14.19;79.84;100021.75;4864076;29;19924;-65
2022/05/06 03:09:05;;;;;;;;;;;;;;;14.18;80.18;100014.91;4880769;29;19979;-65
2022/05/06 03:11:37;;;;;;;;;;;;;;;14.18;80.18;100022.63;4879257;29;20077;-65
2022/05/06 03:14:13;;;;;;;;;;;;;;;14.20;80.30;100018.34;4864021;29;19955;-64
2022/05/06 03:16:53;;;;;;;;;;;;;;;14.18;79.88;100008.97;4876148;29;20302;-64
2022/05/06 03:19:25;;;;;;;;;;;;;;;14.17;80.13;100013.22;4876496;29;19928;-64
2022/05/06 03:21:55;;;;;;;;;;;;;;;14.17;79.98;100013.22;4876207;29;19924;-64
2022/05/06 03:24:23;;;;;;;;;;;;;;;14.15;80.12;100014.13;4862293;29;19968;-64
2022/05/06 03:26:54;;;;;;;;;;;;;;;14.16;80.11;100010.69;4862098;29;19940;-65
2022/05/06 03:29:23;;;;;;;;;;;;;;;14.18;80.15;100009.78;4862354;29;19928;-65
2022/05/06 03:31:52;;;;;;;;;;;;;;;14.16;79.66;100015.81;4860699;29;19924;-64
2022/05/06 03:34:22;;;;;;;;;;;;;;;14.12;79.64;100009.84;4876472;29;19924;-64
2022/05/06 03:36:50;;;;;;;;;;;;;;;14.09;80.12;100012.44;4861998;29;20018;-64
2022/05/06 03:39:19;;;;;;;;;;;;;;;14.09;80.07;100009.88;4876245;29;20367;-65
2022/05/06 03:42:00;;;;;;;;;;;;;;;14.07;80.22;100011.63;4860818;29;20379;-64
2022/05/06 03:44:31;;;;;;;;;;;;;;;14.07;80.05;100017.59;4876258;29;20349;-65
2022/05/06 03:46:59;;;;;;;;;;;;;;;14.07;79.78;100020.16;4861559;29;19924;-65
2022/05/06 03:49:35;;;;;;;;;;;;;;;14.08;80.13;100023.59;4861589;29;19959;-65
2022/05/06 03:52:04;;;;;;;;;;;;;;;14.05;79.79;100018.47;4875997;29;20383;-64
2022/05/06 03:54:34;;;;;;;;;;;;;;;13.98;80.19;100024.53;4875817;29;19924;-64
2022/05/06 03:57:05;;;;;;;;;;;;;;;13.93;79.89;100024.59;4875855;29;20030;-64
2022/05/06 03:59:34;;;;;;;;;;;;;;;13.93;80.03;100028.84;4860560;29;19924;-64
2022/05/06 04:02:13;;;;;;;;;;;;;;;13.91;80.34;100030.59;4875790;29;19952;-64
2022/05/06 04:04:42;;;;;;;;;;;;;;;13.91;80.26;100035.72;4875703;29;19976;-64
2022/05/06 04:07:15;;;;;;;;;;;;;;;13.92;80.70;100038.25;4875814;29;20022;-64
2022/05/06 04:09:49;;;;;;;;;;;;;;;13.94;80.32;100046.78;4876053;29;19972;-64
2022/05/06 04:12:21;;;;;;;;;;;;;;;13.95;80.35;100043.38;4875651;29;19928;-64
2022/05/06 04:14:55;;;;;;;;;;;;;;;13.95;80.20;100030.53;4877894;29;19972;-64
2022/05/06 04:17:24;;;;;;;;;;;;;;;14.01;80.59;100037.34;4878719;29;19930;-64
2022/05/06 04:25:14;;;;;;;;;;;;;;;14.01;80.27;100034.78;4882421;29;20401;-64
2022/05/06 04:27:46;;;;;;;;;;;;;;;14.00;80.62;100036.50;4882278;29;19924;-64
2022/05/06 04:30:15;;;;;;;;;;;;;;;14.04;80.25;100027.03;4882356;29;19927;-65
2022/05/06 04:32:56;;;;;;;;;;;;;;;14.06;80.25;100027.88;4866876;29;19923;-65
2022/05/06 04:35:25;;;;;;;;;;;;;;;14.07;80.43;100021.88;4866730;29;19924;-64
2022/05/06 04:37:54;;;;;;;;;;;;;;;14.10;80.43;100035.56;4882177;29;19924;-65
2022/05/06 04:40:23;;;;;;;;;;;;;;;14.15;80.86;100035.50;4866875;29;19934;-64
2022/05/06 04:42:53;;;;;;;;;;;;;;;14.17;80.79;100044.03;4882007;29;19928;-64
2022/05/06 04:45:24;;;;;;;;;;;;;;;14.20;81.08;100044.00;4866838;29;19959;-65
2022/05/06 04:48:04;;;;;;;;;;;;;;;14.28;80.88;100042.19;4866566;29;20386;-65
2022/05/06 04:50:38;;;;;;;;;;;;;;;14.29;81.00;100043.06;4866516;29;19924;-64
2022/05/06 04:53:10;;;;;;;;;;;;;;;14.28;80.84;100034.50;4882154;29;20019;-64
2022/05/06 04:55:40;;;;;;;;;;;;;;;14.29;81.01;100032.78;4883622;29;19924;-64
2022/05/06 04:58:12;;;;;;;;;;;;;;;14.31;81.21;100031.94;4866322;29;19924;-65
2022/05/06 05:00:50;;;;;;;;;;;;;;;14.35;81.52;100043.06;4866328;29;20014;-65
2022/05/06 05:03:21;;;;;;;;;;;;;;;14.40;81.56;100049.81;4881961;29;20346;-64
2022/05/06 05:05:52;;;;;;;;;;;;;;;14.43;81.96;100031.81;4881999;29;19923;-64
2022/05/06 05:08:22;;;;;;;;;;;;;;;14.47;81.60;100040.31;4881564;29;19972;-64
2022/05/06 05:10:51;;;;;;;;;;;;;;;14.50;81.65;100041.16;4866395;29;19924;-64
2022/05/06 05:13:26;;;;;;;;;;;;;;;14.53;81.70;100038.56;4882568;29;19934;-65
2022/05/06 05:15:55;;;;;;;;;;;;;;;14.54;81.59;100044.56;4882465;29;19931;-64
2022/05/06 05:18:24;;;;;;;;;;;;;;;14.57;81.69;100029.94;4881724;29;20306;-64
2022/05/06 05:20:55;;;;;;;;;;;;;;;14.64;81.93;100041.84;4881743;29;20282;-64
2022/05/06 05:23:24;;;;;;;;;;;;;;;14.70;81.98;100041.78;4881673;29;19988;-65
2022/05/06 05:25:53;;;;;;;;;;;;;;;14.72;81.70;100040.06;4882463;29;19928;-64
2022/05/06 05:28:22;;;;;;;;;;;;;;;14.70;81.45;100041.78;4882364;29;19924;-64
2022/05/06 05:30:52;;;;;;;;;;;;;;;14.70;81.83;100039.22;4865966;29;20399;-64
2022/05/06 05:33:22;;;;;;;;;;;;;;;14.72;81.61;100044.34;4882743;29;19924;-65
2022/05/06 05:35:55;;;;;;;;;;;;;;;14.70;81.61;100041.78;4881062;29;19975;-64
2022/05/06 05:38:24;;;;;;;;;;;;;;;14.71;81.63;100042.63;4865586;29;20361;-65
2022/05/06 05:40:54;;;;;;;;;;;;;;;14.76;81.55;100040.84;4881065;29;19928;-64
2022/05/06 05:48:46;;;;;;;;;;;;;;;14.86;81.59;100042.44;4881973;29;19928;-65
2022/05/06 05:51:15;;;;;;;;;;;;;;;14.90;81.59;100046.66;4880875;29;19987;-64
2022/05/06 05:53:51;;;;;;;;;;;;;;;14.93;81.82;100048.34;4880793;29;20038;-65
2022/05/06 05:56:21;;;;;;;;;;;;;;;15.01;81.24;100056.84;4865396;29;20284;-64
2022/05/06 05:58:51;;;;;;;;;;;;;;;15.07;81.50;100064.47;4881052;29;19923;-64
2022/05/06 06:01:25;;;;;;;;;;;;;;;15.01;81.36;100056.84;4882203;29;19923;-64
2022/05/06 06:03:58;;;;;;;;;;;;;;;15.07;81.50;100056.78;4865401;29;19924;-64
2022/05/06 06:06:27;;;;;;;;;;;;;;;15.14;80.93;100053.25;4865058;29;19923;-64
2022/05/06 06:08:57;;;;;;;;;;;;;;;15.17;81.21;100053.19;4880285;29;20401;-64
2022/05/06 06:11:27;;;;;;;;;;;;;;;15.19;80.73;100057.44;4865075;29;19991;-64
2022/05/06 06:13:56;;;;;;;;;;;;;;;15.18;80.84;100054.91;4880767;29;19998;-64
2022/05/06 06:16:28;;;;;;;;;;;;;;;15.25;81.24;100049.66;4877248;29;19977;-64
2022/05/06 06:18:58;;;;;;;;;;;;;;;15.26;81.26;100053.09;4877633;29;20287;-64
2022/05/06 06:21:29;;;;;;;;;;;;;;;15.30;80.94;100054.72;4877066;29;20368;-64
2022/05/06 06:23:58;;;;;;;;;;;;;;;15.38;80.85;100050.31;4862822;29;19932;-65
2022/05/06 06:26:26;;;;;;;;;;;;;;;15.52;80.95;100051.03;4877067;29;19928;-64
2022/05/06 06:28:58;;;;;;;;;;;;;;;15.61;80.28;100050.88;4877099;29;20015;-64
2022/05/06 06:31:30;;;;;;;;;;;;;;;15.66;79.99;100043.09;4877379;29;20022;-64
2022/05/06 06:34:00;;;;;;;;;;;;;;;15.71;79.81;100052.44;4877292;29;19956;-64
2022/05/06 06:36:34;;;;;;;;;;;;;;;15.79;79.70;100055.72;4862179;29;19936;-65
2022/05/06 06:39:04;;;;;;;;;;;;;;;15.86;79.31;100057.31;4861429;29;20027;-64
2022/05/06 06:41:37;;;;;;;;;;;;;;;15.95;79.07;100054.63;4876920;29;19924;-64
2022/05/06 06:44:05;;;;;;;;;;;;;;;16.08;78.94;100057.81;4862526;29;20001;-64
2022/05/06 06:47:01;;;;;;;;;;;;;;;16.04;78.39;100057.03;4860747;29;19932;-64
2022/05/06 06:49:41;;;;;;;;;;;;;;;16.12;78.08;100053.47;4860751;29;19928;-65
2022/05/06 06:52:24;;;;;;;;;;;;;;;16.22;77.80;100049.88;4876858;29;20447;-64
2022/05/06 06:54:53;;;;;;;;;;;;;;;16.23;77.45;100046.41;4862178;29;20350;-64
2022/05/06 06:57:22;;;;;;;;;;;;;;;16.19;76.91;100045.63;4879449;29;19924;-64
2022/05/06 06:59:51;;;;;;;;;;;;;;;16.25;76.75;100049.78;4881299;29;19976;-65
2022/05/06 07:02:21;;;;;;;;;;;;;;;16.34;76.37;100054.81;4881110;29;19924;-64
2022/05/06 07:04:51;;;;;;;;;;;;;;;16.31;75.88;100049.72;4868716;29;19972;-64
2022/05/06 07:12:37;;;;;;;;;;;;;;;16.40;75.75;100049.53;4862036;29;19924;-64
2022/05/06 07:15:06;;;;;;;;;;;;;;;16.38;76.13;100046.13;4865741;29;19928;-64
2022/05/06 07:17:36;;;;;;;;;;;;;;;16.38;75.99;100052.16;4875980;29;19984;-64
2022/05/06 07:20:06;;;;;;;;;;;;;;;16.36;75.90;100047.91;4861844;29;20030;-64
2022/05/06 07:22:34;;;;;;;;;;;;;;;16.40;75.90;100052.09;4861917;29;20282;-64
2022/05/06 07:25:03;;;;;;;;;;;;;;;16.48;75.72;100050.25;4862104;29;19963;-64
2022/05/06 07:27:34;;;;;;;;;;;;;;;16.51;75.62;100047.59;4861799;29;19924;-65
2022/05/06 07:30:03;;;;;;;;;;;;;;;16.57;75.73;100044.94;4862150;29;19927;-64
2022/05/06 07:32:32;;;;;;;;;;;;;;;16.60;75.45;100042.31;4862681;29;20363;-64
2022/05/06 07:35:02;;;;;;;;;;;;;;;16.70;75.30;100052.41;4861853;29;20022;-65
2022/05/06 07:37:33;;;;;;;;;;;;;;;16.82;74.94;100047.91;4862298;29;20440;-65
2022/05/06 07:40:03;;;;;;;;;;;;;;;16.95;74.90;100049.34;4861748;29;19928;-64
2022/05/06 07:42:33;;;;;;;;;;;;;;;16.99;74.64;100051.81;4868625;29;19924;-65
2022/05/06 07:45:02;;;;;;;;;;;;;;;17.06;74.25;100053.38;4879810;29;20382;-65
2022/05/06 07:47:30;;;;;;;;;;;;;;;17.07;73.84;100059.41;4880237;29;20337;-64
2022/05/06 07:50:20;;;;;;;;;;;;;;;17.13;73.61;100052.38;4863906;29;19932;-65
2022/05/06 07:52:50;;;;;;;;;;;;;;;17.26;73.62;100053.81;4875688;29;20010;-65
2022/05/06 07:55:19;;;;;;;;;;;;;;;17.36;73.51;100052.75;4880299;29;20439;-65
2022/05/06 07:57:48;;;;;;;;;;;;;;;17.40;73.53;100049.19;4880311;29;19930;-65
2022/05/06 08:00:19;;;;;;;;;;;;;;;17.44;73.31;100058.56;4884273;29;20039;-65
2022/05/06 08:05:29;;;;;;;;;;;;;;;17.51;72.97;100059.28;4883850;29;19934;-64
2022/05/06 08:07:57;;;;;;;;;;;;;;;17.56;72.96;100057.50;4883743;29;19924;-64
2022/05/06 08:10:26;;;;;;;;;;;;;;;17.60;72.74;100056.53;4884087;29;19934;-64
2022/05/06 08:12:55;;;;;;;;;;;;;;;17.64;72.61;100057.28;4882371;29;19927;-65
2022/05/06 08:15:24;;;;;;;;;;;;;;;17.65;72.37;100061.56;4882550;29;20383;-65
2022/05/06 08:17:52;;;;;;;;;;;;;;;17.63;71.94;100065.94;4883498;29;19923;-64
2022/05/06 08:20:21;;;;;;;;;;;;;;;17.67;71.77;100063.25;4883907;29;20450;-64
2022/05/06 08:22:51;;;;;;;;;;;;;;;17.79;71.92;100072.44;4883882;29;20011;-64
2022/05/06 08:25:20;;;;;;;;;;;;;;;17.79;71.76;100077.59;4883838;29;19923;-64
2022/05/06 08:27:59;;;;;;;;;;;;;;;17.79;71.57;100075.00;4883424;29;20014;-64
2022/05/06 08:30:28;;;;;;;;;;;;;;;17.83;71.31;100080.06;4883895;29;19924;-65
2022/05/06 08:32:57;;;;;;;;;;;;;;;17.87;71.01;100070.53;4883368;29;20375;-64
2022/05/06 08:35:26;;;;;;;;;;;;;;;17.93;71.00;100075.53;4883185;29;19974;-64
2022/05/06 08:37:57;;;;;;;;;;;;;;;18.04;70.98;100078.72;4882254;29;19923;-64
2022/05/06 08:40:28;;;;;;;;;;;;;;;18.26;71.16;100072.09;4882813;29;20043;-64
2022/05/06 08:42:58;;;;;;;;;;;;;;;18.44;70.71;100074.22;4883164;29;20379;-64
2022/05/06 08:53:23;;;;;;;;;;;;;;;18.80;68.99;100076.72;4882762;29;19927;-64
2022/05/06 08:55:52;;;;;;;;;;;;;;;18.84;68.70;100078.31;4882945;29;19930;-64
2022/05/06 08:58:21;;;;;;;;;;;;;;;18.83;68.37;100077.50;4882805;29;20367;-64
2022/05/06 09:00:51;;;;;;;;;;;;;;;18.90;68.12;100078.16;4883158;29;19924;-64
2022/05/06 09:03:19;;;;;;;;;;;;;;;19.01;67.95;100082.16;4882768;29;20454;-64
2022/05/06 09:05:49;;;;;;;;;;;;;;;19.05;67.62;100082.91;4882856;29;19924;-64
2022/05/06 09:08:18;;;;;;;;;;;;;;;19.12;67.21;100087.03;4883040;29;20006;-65
2022/05/06 09:11:08;;;;;;;;;;;;;;;19.12;66.92;100089.63;4881052;29;19928;-64
2022/05/06 09:13:39;;;;;;;;;;;;;;;19.03;66.55;100090.72;4878153;29;19976;-65
2022/05/06 09:19:09;;;;;;;;;;;;;;;19.16;66.88;100086.03;4882659;29;20454;-64
2022/05/06 09:21:38;;;;;;;;;;;;;;;19.12;66.59;100089.63;4882859;29;19923;-64
2022/05/06 09:24:18;;;;;;;;;;;;;;;19.09;66.45;100094.88;4882863;29;19927;-64
2022/05/06 09:26:57;;;;;;;;;;;;;;;19.12;65.92;100089.63;4882346;29;19967;-64
2022/05/06 09:29:31;;;;;;;;;;;;;;;19.24;66.40;100084.09;4882407;29;19980;-64
2022/05/06 09:32:13;;;;;;;;;;;;;;;19.23;66.38;100083.22;4881671;29;19928;-65
2022/05/06 09:34:42;;;;;;;;;;;;;;;19.24;66.33;100084.09;4879036;29;19928;-64
2022/05/06 09:37:11;;;;;;;;;;;;;;;19.35;65.93;100087.19;4881533;29;19923;-64
2022/05/06 09:39:40;;;;;;;;;;;;;;;19.47;65.42;100086.00;4882184;29;19924;-64
2022/05/06 09:42:09;;;;;;;;;;;;;;;19.47;65.13;100083.41;4881376;29;19924;-64
2022/05/06 09:44:39;;;;;;;;;;;;;;;19.49;65.15;100085.06;4882264;29;20276;-64
2022/05/06 09:47:10;;;;;;;;;;;;;;;19.62;65.34;100088.97;4882395;29;20302;-64
2022/05/06 09:49:40;;;;;;;;;;;;;;;19.71;64.95;100082.66;4881836;29;19931;-64
2022/05/06 09:52:12;;;;;;;;;;;;;;;19.74;64.66;100086.00;4882004;29;20015;-64
2022/05/06 09:54:43;;;;;;;;;;;;;;;19.90;65.19;100082.03;4876303;29;20374;-65
2022/05/06 09:57:12;;;;;;;;;;;;;;;19.96;65.37;100092.19;4876923;29;20015;-64
2022/05/06 09:59:42;;;;;;;;;;;;;;;20.08;65.31;100088.38;4881809;29;20467;-64
2022/05/06 10:02:11;;;;;;;;;;;;;;;20.07;64.92;100091.84;4881616;29;19975;-65
2022/05/06 10:04:40;;;;;;;;;;;;;;;20.18;64.96;100096.69;4875260;29;19980;-64
2022/05/06 10:07:12;;;;;;;;;;;;;;;20.22;64.85;100087.91;4873359;29;20006;-64
2022/05/06 10:09:42;;;;;;;;;;;;;;;20.37;64.71;100084.84;4881648;29;19959;-65
2022/05/06 10:12:12;;;;;;;;;;;;;;;20.39;64.73;100081.28;4882041;29;19959;-64
2022/05/06 10:14:42;;;;;;;;;;;;;;;20.36;64.18;100090.91;4881708;29;19972;-64
2022/05/06 10:17:11;;;;;;;;;;;;;;;20.32;64.93;100089.31;4881661;29;19931;-64
2022/05/06 10:19:47;;;;;;;;;;;;;;;20.19;64.58;100091.44;4881385;29;20389;-64
2022/05/06 10:22:16;;;;;;;;;;;;;;;20.18;64.17;100086.31;4879491;29;19934;-64
2022/05/06 10:24:49;;;;;;;;;;;;;;;20.15;64.51;100087.25;4881746;29;19987;-64
2022/05/06 10:32:25;;;;;;;;;;;;;;;20.18;64.08;100091.50;4881298;29;19961;-64
2022/05/06 10:33:08;;;;;;;;;;;;;;;20.06;63.48;100088.41;4881632;29;20021;-64
2022/05/06 10:35:40;;;;;;;;;;;;;;;20.12;63.24;100087.34;4881408;29;20298;-64
2022/05/06 10:38:17;;;;;;;;;;;;;;;20.05;63.21;100093.63;4881235;29;19923;-64
2022/05/06 10:40:57;;;;;;;;;;;;;;;20.03;64.00;100091.09;4880659;29;19924;-64
2022/05/06 10:43:37;;;;;;;;;;;;;;;19.93;64.66;100087.13;4881399;29;19923;-65
2022/05/06 10:46:11;;;;;;;;;;;;;;;19.85;66.04;100089.09;4879840;29;19976;-65
2022/05/06 10:48:41;;;;;;;;;;;;;;;19.89;66.63;100088.09;4880136;29;20397;-65
2022/05/06 10:51:24;;;;;;;;;;;;;;;19.79;66.32;100086.72;4886377;29;19946;-65
2022/05/06 10:53:53;;;;;;;;;;;;;;;19.72;66.01;100082.63;4899789;29;19930;-65
2022/05/06 10:56:22;;;;;;;;;;;;;;;19.64;65.47;100069.06;4882720;29;20438;-66
2022/05/06 10:59:02;;;;;;;;;;;;;;;19.59;65.57;100078.72;4880343;29;19973;-65
2022/05/06 11:01:32;;;;;;;;;;;;;;;19.61;65.49;100071.72;4881239;29;19924;-65
2022/05/06 11:04:02;;;;;;;;;;;;;;;19.59;64.84;100076.13;4881100;29;19951;-65
2022/05/06 11:06:32;;;;;;;;;;;;;;;19.70;64.35;100079.22;4880933;29;19923;-66
2022/05/06 11:09:00;;;;;;;;;;;;;;;19.76;63.66;100073.00;4881003;29;19988;-65
2022/05/06 11:11:34;;;;;;;;;;;;;;;19.79;62.99;100072.91;4879452;29;19924;-66
2022/05/06 11:14:18;;;;;;;;;;;;;;;19.75;62.52;100077.31;4874273;29;19937;-65
2022/05/06 11:16:47;;;;;;;;;;;;;;;19.88;62.99;100081.22;4876318;29;20429;-65
2022/05/06 11:22:12;;;;;;;;;;;;;;;19.95;64.11;100072.38;5111969;27;19973;-65
2022/05/06 11:24:41;;;;;;;;;;;;;;;20.03;63.32;100072.13;5111649;28;19931;-65
2022/05/06 11:27:13;;;;;;;;;;;;;;;20.08;62.39;100065.84;5111700;28;19970;-66
2022/05/06 11:29:48;;;;;;;;;;;;;;;20.20;62.44;100079.34;5112057;28;19989;-65
2022/05/06 11:32:19;;;;;;;;;;;;;;;20.32;63.14;100068.59;5111663;28;19928;-66
2022/05/06 11:34:48;;;;;;;;;;;;;;;20.39;63.60;100075.25;5110263;28;19924;-65
2022/05/06 11:37:25;;;;;;;;;;;;;;;20.50;63.31;100067.94;5077791;28;20389;-65
2022/05/06 11:40:18;;;;;;;;;;;;;;;20.53;63.08;100070.44;5070816;28;19929;-65
2022/05/06 11:42:43;;;;;;;;;;;;;;;20.48;62.25;100074.91;5082369;28;19929;-64
2022/05/06 11:48:04;;;;;;;;;;;;;;;20.48;60.02;100069.75;5086542;28;19929;-66
2022/05/06 11:50:33;;;;;;;;;;;;;;;20.52;59.67;100066.13;5082119;28;19954;-64
2022/05/06 11:53:05;;;;;;;;;;;;;;;20.54;59.20;100069.50;5090787;28;19971;-65
2022/05/06 11:55:35;;;;;;;;;;;;;;;20.48;58.81;100070.59;5085802;28;19928;-65
2022/05/06 11:58:05;;;;;;;;;;;;;;;20.42;58.86;100075.16;5079659;28;19993;-64
2022/05/06 12:00:34;;;;;;;;;;;;;;;20.42;58.85;100081.16;5070340;28;20387;-65
2022/05/06 12:03:03;;;;;;;;;;;;;;;20.36;58.76;100075.34;5073174;28;19932;-67
2022/05/06 12:05:32;;;;;;;;;;;;;;;20.39;58.64;100077.84;5073732;27;19955;-69
2022/05/06 12:08:01;;;;;;;;;;;;;;;20.51;58.30;100080.00;5088364;28;19925;-67
2022/05/06 12:10:32;;;;;;;;;;;;;;;20.62;58.64;100078.72;5082022;28;19925;-66
2022/05/06 12:13:02;;;;;;;;;;;;;;;20.53;57.99;100079.06;5070299;28;19971;-66
2022/05/06 12:15:31;;;;;;;;;;;;;;;20.52;57.75;100073.91;5070298;28;19925;-65
2022/05/06 12:18:03;;;;;;;;;;;;;;;20.49;57.71;100074.84;5070522;28;19974;-65
2022/05/06 12:20:33;;;;;;;;;;;;;;;20.46;57.61;100077.59;5085916;28;19928;-66
2022/05/06 12:23:01;;;;;;;;;;;;;;;20.50;57.21;100075.72;5083459;28;19930;-66
2022/05/06 12:25:32;;;;;;;;;;;;;;;20.57;57.46;100070.25;5110534;28;19977;-66
2022/05/06 12:28:05;;;;;;;;;;;;;;;20.68;57.61;100072.50;5098297;28;19924;-66
2022/05/06 12:30:33;;;;;;;;;;;;;;;20.76;58.08;100065.25;5110606;28;20453;-66
2022/05/06 12:33:03;;;;;;;;;;;;;;;20.87;57.49;100068.34;5092612;28;19925;-66
2022/05/06 12:35:33;;;;;;;;;;;;;;;20.95;57.41;100074.06;5076743;28;19947;-66
2022/05/06 12:38:01;;;;;;;;;;;;;;;20.95;57.50;100068.88;5076424;28;19925;-65
2022/05/06 12:40:32;;;;;;;;;;;;;;;20.91;57.44;100069.91;5076335;28;19970;-65
2022/05/06 12:43:05;;;;;;;;;;;;;;;20.79;56.64;100064.31;5076341;28;19925;-66
2022/05/06 12:45:33;;;;;;;;;;;;;;;20.86;58.01;100061.44;5090381;28;19931;-66
2022/05/06 12:50:40;;;;;;;;;;;;;;;20.91;57.82;100063.84;5096821;28;20030;-66
2022/05/06 12:53:09;;;;;;;;;;;;;;;20.81;57.69;100052.97;5096800;28;20320;-65
2022/05/06 12:55:39;;;;;;;;;;;;;;;20.78;57.92;100062.63;5096386;28;19978;-65
2022/05/06 12:58:08;;;;;;;;;;;;;;;20.77;57.95;100061.78;5096539;28;19924;-65
2022/05/06 13:00:38;;;;;;;;;;;;;;;20.76;57.64;100059.22;5096231;28;20346;-66
2022/05/06 13:03:06;;;;;;;;;;;;;;;20.80;58.00;100056.47;5088117;28;20382;-66
2022/05/06 13:05:37;;;;;;;;;;;;;;;20.89;58.23;100061.34;5093684;28;19924;-66
2022/05/06 13:08:06;;;;;;;;;;;;;;;20.90;57.98;100057.81;5096000;28;20435;-65
2022/05/06 13:10:37;;;;;;;;;;;;;;;20.92;57.16;100056.03;5096538;28;19989;-65
2022/05/06 13:13:07;;;;;;;;;;;;;;;20.93;56.63;100052.53;5096232;28;20378;-65
2022/05/06 13:15:36;;;;;;;;;;;;;;;21.15;57.96;100058.66;5096165;28;19924;-65
2022/05/06 13:18:05;;;;;;;;;;;;;;;21.27;58.16;100063.38;5096035;28;19934;-66
2022/05/06 13:20:34;;;;;;;;;;;;;;;21.20;57.34;100056.72;5093686;28;20282;-66
2022/05/06 13:23:03;;;;;;;;;;;;;;;21.15;57.72;100050.84;5095774;28;19928;-65
2022/05/06 13:25:31;;;;;;;;;;;;;;;21.18;57.59;100057.69;5095948;28;19924;-64
2022/05/06 13:28:00;;;;;;;;;;;;;;;21.14;57.55;100059.53;5077789;28;20286;-64
2022/05/06 13:30:30;;;;;;;;;;;;;;;21.01;57.35;100054.84;5095717;28;20370;-65
2022/05/06 13:32:58;;;;;;;;;;;;;;;21.02;58.33;100049.56;5096139;28;19924;-65
2022/05/06 13:35:28;;;;;;;;;;;;;;;21.06;58.99;100053.81;5077945;28;19927;-65
2022/05/06 13:37:56;;;;;;;;;;;;;;;21.06;57.73;100052.94;5095511;28;19924;-65
2022/05/06 13:40:25;;;;;;;;;;;;;;;21.06;56.80;100048.63;5095883;28;19928;-65
2022/05/06 13:42:55;;;;;;;;;;;;;;;20.98;57.00;100052.34;5095542;28;20314;-65
2022/05/06 13:45:24;;;;;;;;;;;;;;;21.07;57.19;100054.63;5095034;28;19969;-65